sensor_id;sensor_type;location;lat;lon;timestamp;pressure;altitude;pressure_sealevel;temperature;humidity
47670;BME280;33408;52.062;11.722;2023-11-18T00:00:46;101984.09;;;3.09;100.00
47670;BME280;33408;52.062;11.722;2023-11-18T00:03:14;101982.34;;;3.08;100.00
47670;BME280;33408;52.062;11.722;2023-11-18T00:05:41;101985.00;;;3.12;100.00
47670;BME280;33408;52.062;11.722;2023-11-18T00:08:08;101986.56;;;3.06;100.00
47670;BME280;33408;52.062;11.722;2023-11-18T00:10:34;101987.56;;;3.12;100.00
47670;BME280;33408;52.062;11.722;2023-11-18T00:13:01;101982.69;;;3.19;100.00
47670;BME280;33408;52.062;11.722;2023-11-18T00:15:29;101984.34;;;3.17;100.00
47670;BME280;33408;52.062;11.722;2023-11-18T00:17:55;101981.09;;;3.23;100.00
47670;BME280;33408;52.062;11.722;2023-11-18T00:20:24;101989.84;;;3.29;100.00
47670;BME280;33408;52.062;11.722;2023-11-18T00:22:51;101982.78;;;3.22;100.00
47670;BME280;33408;52.062;11.722;2023-11-18T00:25:18;101978.03;;;3.35;100.00
47670;BME280;33408;52.062;11.722;2023-11-18T00:27:44;101982.16;;;3.29;100.00
47670;BME280;33408;52.062;11.722;2023-11-18T00:30:12;101981.69;;;3.41;100.00
47670;BME280;33408;52.062;11.722;2023-11-18T00:32:41;101979.88;;;3.39;100.00
47670;BME280;33408;52.062;11.722;2023-11-18T00:35:09;101971.94;;;3.31;100.00
47670;BME280;33408;52.062;11.722;2023-11-18T00:37:38;101964.16;;;3.28;100.00
47670;BME280;33408;52.062;11.722;2023-11-18T00:40:06;101966.41;;;3.46;100.00
47670;BME280;33408;52.062;11.722;2023-11-18T00:42:34;101961.28;;;3.46;100.00
47670;BME280;33408;52.062;11.722;2023-11-18T00:45:00;101965.50;;;3.44;100.00
47670;BME280;33408;52.062;11.722;2023-11-18T00:47:29;101969.97;;;3.50;100.00
47670;BME280;33408;52.062;11.722;2023-11-18T00:49:56;101966.75;;;3.57;100.00
47670;BME280;33408;52.062;11.722;2023-11-18T00:52:23;101972.44;;;3.46;100.00
47670;BME280;33408;52.062;11.722;2023-11-18T00:54:51;101966.31;;;3.43;100.00
47670;BME280;33408;52.062;11.722;2023-11-18T00:57:17;101966.41;;;3.46;100.00
47670;BME280;33408;52.062;11.722;2023-11-18T00:59:44;101977.22;;;3.36;100.00
47670;BME280;33408;52.062;11.722;2023-11-18T01:02:10;101982.94;;;3.27;100.00
47670;BME280;33408;52.062;11.722;2023-11-18T01:04:38;101984.28;;;3.16;100.00
47670;BME280;33408;52.062;11.722;2023-11-18T01:07:05;101986.00;;;3.17;100.00
47670;BME280;33408;52.062;11.722;2023-11-18T01:09:32;101987.56;;;3.12;100.00
47670;BME280;33408;52.062;11.722;2023-11-18T01:12:06;101985.09;;;3.15;100.00
47670;BME280;33408;52.062;11.722;2023-11-18T01:14:35;101989.13;;;3.06;100.00
47670;BME280;33408;52.062;11.722;2023-11-18T01:17:03;101986.66;;;3.09;100.00
47670;BME280;33408;52.062;11.722;2023-11-18T01:19:30;101986.97;;;2.93;100.00
47670;BME280;33408;52.062;11.722;2023-11-18T01:21:56;101991.91;;;2.87;100.00
47670;BME280;33408;52.062;11.722;2023-11-18T01:24:23;101985.69;;;2.80;100.00
47670;BME280;33408;52.062;11.722;2023-11-18T01:26:50;101991.50;;;2.50;100.00
47670;BME280;33408;52.062;11.722;2023-11-18T01:29:18;101986.66;;;2.58;100.00
47670;BME280;33408;52.062;11.722;2023-11-18T01:31:46;101988.06;;;2.50;100.00
47670;BME280;33408;52.062;11.722;2023-11-18T01:34:13;101977.72;;;2.47;100.00
47670;BME280;33408;52.062;11.722;2023-11-18T01:36:40;101984.84;;;2.55;100.00
47670;BME280;33408;52.062;11.722;2023-11-18T01:39:09;101989.09;;;2.55;100.00
47670;BME280;33408;52.062;11.722;2023-11-18T01:41:35;101986.25;;;2.47;100.00
47670;BME280;33408;52.062;11.722;2023-11-18T01:44:02;101987.03;;;2.45;100.00
47670;BME280;33408;52.062;11.722;2023-11-18T01:46:31;101986.03;;;2.41;100.00
47670;BME280;33408;52.062;11.722;2023-11-18T01:48:58;101996.16;;;2.38;100.00
47670;BME280;33408;52.062;11.722;2023-11-18T01:51:25;101997.53;;;2.28;100.00
47670;BME280;33408;52.062;11.722;2023-11-18T01:53:51;101994.09;;;2.28;100.00
47670;BME280;33408;52.062;11.722;2023-11-18T01:56:18;101978.81;;;2.29;100.00
47670;BME280;33408;52.062;11.722;2023-11-18T01:58:46;101983.81;;;2.26;100.00
47670;BME280;33408;52.062;11.722;2023-11-18T02:01:14;101990.47;;;2.21;100.00
47670;BME280;33408;52.062;11.722;2023-11-18T02:03:44;101993.06;;;1.98;100.00
47670;BME280;33408;52.062;11.722;2023-11-18T02:06:13;101999.03;;;1.76;100.00
47670;BME280;33408;52.062;11.722;2023-11-18T02:08:42;101998.81;;;1.70;100.00
47670;BME280;33408;52.062;11.722;2023-11-18T02:11:15;102004.94;;;1.53;100.00
47670;BME280;33408;52.062;11.722;2023-11-18T02:13:47;102014.81;;;1.43;100.00
47670;BME280;33408;52.062;11.722;2023-11-18T02:16:15;102023.38;;;1.23;100.00
47670;BME280;33408;52.062;11.722;2023-11-18T02:18:44;102027.63;;;1.24;100.00
47670;BME280;33408;52.062;11.722;2023-11-18T02:21:11;102020.03;;;1.25;100.00
47670;BME280;33408;52.062;11.722;2023-11-18T02:23:40;102025.00;;;1.21;100.00
47670;BME280;33408;52.062;11.722;2023-11-18T02:26:08;102030.03;;;1.19;100.00
47670;BME280;33408;52.062;11.722;2023-11-18T02:28:35;102030.63;;;1.35;100.00
47670;BME280;33408;52.062;11.722;2023-11-18T02:31:05;102030.38;;;1.28;100.00
47670;BME280;33408;52.062;11.722;2023-11-18T02:33:53;102033.38;;;1.39;100.00
47670;BME280;33408;52.062;11.722;2023-11-18T02:36:26;102035.13;;;1.40;100.00
47670;BME280;33408;52.062;11.722;2023-11-18T02:39:05;102041.34;;;1.47;100.00
47670;BME280;33408;52.062;11.722;2023-11-18T02:41:35;102039.66;;;1.48;100.00
47670;BME280;33408;52.062;11.722;2023-11-18T02:44:05;102036.97;;;1.44;100.00
47670;BME280;33408;52.062;11.722;2023-11-18T02:46:36;102043.00;;;1.45;100.00
47670;BME280;33408;52.062;11.722;2023-11-18T02:49:03;102043.72;;;1.42;100.00
47670;BME280;33408;52.062;11.722;2023-11-18T02:51:30;102041.63;;;1.32;100.00
47670;BME280;33408;52.062;11.722;2023-11-18T02:53:59;102048.03;;;1.22;100.00
47670;BME280;33408;52.062;11.722;2023-11-18T02:56:25;102043.53;;;0.96;100.00
47670;BME280;33408;52.062;11.722;2023-11-18T02:58:53;102046.66;;;0.90;100.00
47670;BME280;33408;52.062;11.722;2023-11-18T03:01:20;102044.06;;;0.88;100.00
47670;BME280;33408;52.062;11.722;2023-11-18T03:03:47;102044.69;;;0.83;100.00
47670;BME280;33408;52.062;11.722;2023-11-18T03:06:13;102041.41;;;0.85;100.00
47670;BME280;33408;52.062;11.722;2023-11-18T03:08:41;102046.09;;;0.76;100.00
47670;BME280;33408;52.062;11.722;2023-11-18T03:11:07;102051.81;;;0.70;100.00
47670;BME280;33408;52.062;11.722;2023-11-18T03:13:35;102049.34;;;0.52;100.00
47670;BME280;33408;52.062;11.722;2023-11-18T03:16:06;102054.84;;;0.42;100.00
47670;BME280;33408;52.062;11.722;2023-11-18T03:18:37;102053.38;;;0.47;100.00
47670;BME280;33408;52.062;11.722;2023-11-18T03:21:05;102058.25;;;0.62;100.00
47670;BME280;33408;52.062;11.722;2023-11-18T03:23:32;102061.34;;;0.55;100.00
47670;BME280;33408;52.062;11.722;2023-11-18T03:25:59;102060.94;;;0.65;100.00
47670;BME280;33408;52.062;11.722;2023-11-18T03:28:26;102062.69;;;0.66;100.00
47670;BME280;33408;52.062;11.722;2023-11-18T03:30:52;102062.22;;;0.75;100.00
47670;BME280;33408;52.062;11.722;2023-11-18T03:33:20;102065.31;;;0.87;100.00
47670;BME280;33408;52.062;11.722;2023-11-18T03:35:47;102067.38;;;0.96;100.00
47670;BME280;33408;52.062;11.722;2023-11-18T03:38:14;102069.97;;;0.98;100.00
47670;BME280;33408;52.062;11.722;2023-11-18T03:40:42;102075.16;;;0.99;100.00
47670;BME280;33408;52.062;11.722;2023-11-18T03:43:10;102069.91;;;0.96;100.00
47670;BME280;33408;52.062;11.722;2023-11-18T03:45:38;102065.75;;;0.98;100.00
47670;BME280;33408;52.062;11.722;2023-11-18T03:48:05;102061.53;;;0.99;100.00
47670;BME280;33408;52.062;11.722;2023-11-18T03:50:33;102071.09;;;1.04;100.00
47670;BME280;33408;52.062;11.722;2023-11-18T03:53:00;102081.53;;;1.09;100.00
47670;BME280;33408;52.062;11.722;2023-11-18T03:55:28;102077.59;;;1.17;100.00
47670;BME280;33408;52.062;11.722;2023-11-18T03:57:55;102077.13;;;1.26;100.00
47670;BME280;33408;52.062;11.722;2023-11-18T04:00:23;102079.94;;;1.32;100.00
47670;BME280;33408;52.062;11.722;2023-11-18T04:02:55;102085.47;;;1.43;100.00
47670;BME280;33408;52.062;11.722;2023-11-18T04:05:22;102087.28;;;1.45;100.00
47670;BME280;33408;52.062;11.722;2023-11-18T04:07:50;102086.97;;;1.38;100.00
47670;BME280;33408;52.062;11.722;2023-11-18T04:10:17;102092.59;;;1.29;100.00
47670;BME280;33408;52.062;11.722;2023-11-18T04:12:45;102086.03;;;1.36;100.00
47670;BME280;33408;52.062;11.722;2023-11-18T04:15:13;102093.84;;;1.39;100.00
47670;BME280;33408;52.062;11.722;2023-11-18T04:17:40;102086.84;;;1.35;100.00
47670;BME280;33408;52.062;11.722;2023-11-18T04:20:10;102085.47;;;1.43;100.00
47670;BME280;33408;52.062;11.722;2023-11-18T04:22:38;102089.22;;;1.51;100.00
47670;BME280;33408;52.062;11.722;2023-11-18T04:25:07;102091.34;;;1.61;100.00
47670;BME280;33408;52.062;11.722;2023-11-18T04:27:35;102090.75;;;1.69;100.00
47670;BME280;33408;52.062;11.722;2023-11-18T04:30:02;102095.25;;;1.74;100.00
47670;BME280;33408;52.062;11.722;2023-11-18T04:32:29;102094.69;;;1.81;100.00
47670;BME280;33408;52.062;11.722;2023-11-18T04:34:57;102081.34;;;1.89;100.00
47670;BME280;33408;52.062;11.722;2023-11-18T04:37:24;102089.81;;;1.88;100.00
47670;BME280;33408;52.062;11.722;2023-11-18T04:39:50;102088.28;;;1.93;100.00
47670;BME280;33408;52.062;11.722;2023-11-18T04:42:18;102089.53;;;2.03;100.00
47670;BME280;33408;52.062;11.722;2023-11-18T04:44:45;102089.59;;;2.04;100.00
47670;BME280;33408;52.062;11.722;2023-11-18T04:47:12;102085.44;;;2.06;100.00
47670;BME280;33408;52.062;11.722;2023-11-18T04:49:38;102090.63;;;2.09;100.00
47670;BME280;33408;52.062;11.722;2023-11-18T04:52:05;102094.81;;;2.07;100.00
47670;BME280;33408;52.062;11.722;2023-11-18T04:54:32;102093.91;;;2.05;100.00
47670;BME280;33408;52.062;11.722;2023-11-18T04:56:59;102088.84;;;2.07;100.00
47670;BME280;33408;52.062;11.722;2023-11-18T04:59:27;102092.75;;;2.19;100.00
47670;BME280;33408;52.062;11.722;2023-11-18T05:01:56;102090.06;;;2.16;100.00
47670;BME280;33408;52.062;11.722;2023-11-18T05:04:22;102092.75;;;2.19;100.00
47670;BME280;33408;52.062;11.722;2023-11-18T05:06:49;102093.84;;;2.26;100.00
47670;BME280;33408;52.062;11.722;2023-11-18T05:09:16;102092.19;;;2.28;100.00
47670;BME280;33408;52.062;11.722;2023-11-18T05:11:43;102081.41;;;2.35;100.00
47670;BME280;33408;52.062;11.722;2023-11-18T05:14:11;102085.78;;;2.40;100.00
47670;BME280;33408;52.062;11.722;2023-11-18T05:16:39;102085.91;;;2.43;100.00
47670;BME280;33408;52.062;11.722;2023-11-18T05:19:05;102081.13;;;2.52;100.00
47670;BME280;33408;52.062;11.722;2023-11-18T05:21:32;102076.81;;;2.51;100.00
47670;BME280;33408;52.062;11.722;2023-11-18T05:23:59;102075.16;;;2.51;100.00
47670;BME280;33408;52.062;11.722;2023-11-18T05:26:26;102077.88;;;2.56;100.00
47670;BME280;33408;52.062;11.722;2023-11-18T05:28:53;102071.88;;;2.55;100.00
47670;BME280;33408;52.062;11.722;2023-11-18T05:31:20;102078.81;;;2.58;100.00
47670;BME280;33408;52.062;11.722;2023-11-18T05:33:48;102075.84;;;2.47;100.00
47670;BME280;33408;52.062;11.722;2023-11-18T05:36:17;102084.47;;;2.27;100.00
47670;BME280;33408;52.062;11.722;2023-11-18T05:38:52;102083.72;;;2.29;100.00
47670;BME280;33408;52.062;11.722;2023-11-18T05:41:19;102080.34;;;2.30;100.00
47670;BME280;33408;52.062;11.722;2023-11-18T05:43:53;102073.03;;;2.17;100.00
47670;BME280;33408;52.062;11.722;2023-11-18T05:46:22;102071.06;;;2.10;100.00
47670;BME280;33408;52.062;11.722;2023-11-18T05:48:51;102075.41;;;2.12;100.00
47670;BME280;33408;52.062;11.722;2023-11-18T05:51:20;102074.66;;;2.15;100.00
47670;BME280;33408;52.062;11.722;2023-11-18T05:53:47;102065.09;;;2.11;100.00
47670;BME280;33408;52.062;11.722;2023-11-18T05:56:15;102069.38;;;2.10;100.00
47670;BME280;33408;52.062;11.722;2023-11-18T05:58:43;102070.94;;;2.07;100.00
47670;BME280;33408;52.062;11.722;2023-11-18T06:01:10;102062.72;;;1.93;100.00
47670;BME280;33408;52.062;11.722;2023-11-18T06:03:37;102059.19;;;1.89;100.00
47670;BME280;33408;52.062;11.722;2023-11-18T06:06:07;102061.50;;;1.83;100.00
47670;BME280;33408;52.062;11.722;2023-11-18T06:08:34;102062.94;;;1.76;100.00
47670;BME280;33408;52.062;11.722;2023-11-18T06:11:00;102051.09;;;1.78;100.00
47670;BME280;33408;52.062;11.722;2023-11-18T06:13:38;102046.38;;;1.67;100.00
47670;BME280;33408;52.062;11.722;2023-11-18T06:16:08;102042.44;;;1.75;100.00
47670;BME280;33408;52.062;11.722;2023-11-18T06:18:35;102045.28;;;1.60;100.00
47670;BME280;33408;52.062;11.722;2023-11-18T06:21:02;102040.47;;;1.68;100.00
47670;BME280;33408;52.062;11.722;2023-11-18T06:23:30;102041.34;;;1.68;100.00
47670;BME280;33408;52.062;11.722;2023-11-18T06:25:58;102036.78;;;1.61;100.00
47670;BME280;33408;52.062;11.722;2023-11-18T06:28:25;102037.72;;;1.63;100.00
47670;BME280;33408;52.062;11.722;2023-11-18T06:30:52;102040.09;;;1.58;100.00
47670;BME280;33408;52.062;11.722;2023-11-18T06:33:19;102039.00;;;1.52;100.00
47670;BME280;33408;52.062;11.722;2023-11-18T06:35:48;102048.78;;;1.20;100.00
47670;BME280;33408;52.062;11.722;2023-11-18T06:38:15;102048.56;;;0.94;100.00
47670;BME280;33408;52.062;11.722;2023-11-18T06:40:45;102057.97;;;0.76;100.00
47670;BME280;33408;52.062;11.722;2023-11-18T06:43:12;102056.34;;;0.97;100.00
47670;BME280;33408;52.062;11.722;2023-11-18T06:45:42;102063.81;;;0.93;100.00
47670;BME280;33408;52.062;11.722;2023-11-18T06:48:09;102079.63;;;0.84;100.00
47670;BME280;33408;52.062;11.722;2023-11-18T06:50:36;102080.28;;;0.80;100.00
47670;BME280;33408;52.062;11.722;2023-11-18T06:53:04;102081.91;;;0.78;100.00
47670;BME280;33408;52.062;11.722;2023-11-18T06:55:33;102087.38;;;0.87;100.00
47670;BME280;33408;52.062;11.722;2023-11-18T06:58:02;102089.84;;;0.84;100.00
47670;BME280;33408;52.062;11.722;2023-11-18T07:00:29;102094.47;;;0.73;100.00
47670;BME280;33408;52.062;11.722;2023-11-18T07:02:56;102090.84;;;0.68;100.00
47670;BME280;33408;52.062;11.722;2023-11-18T07:05:22;102095.31;;;0.54;100.00
47670;BME280;33408;52.062;11.722;2023-11-18T07:07:49;102096.47;;;0.61;100.00
47670;BME280;33408;52.062;11.722;2023-11-18T07:10:17;102090.72;;;0.65;100.00
47670;BME280;33408;52.062;11.722;2023-11-18T07:12:46;102096.75;;;0.67;100.00
47670;BME280;33408;52.062;11.722;2023-11-18T07:15:14;102100.50;;;0.75;100.00
47670;BME280;33408;52.062;11.722;2023-11-18T07:17:41;102105.09;;;0.82;100.00
47670;BME280;33408;52.062;11.722;2023-11-18T07:20:11;102108.84;;;0.90;100.00
47670;BME280;33408;52.062;11.722;2023-11-18T07:22:39;102096.16;;;0.92;100.00
47670;BME280;33408;52.062;11.722;2023-11-18T07:25:06;102107.09;;;0.89;100.00
47670;BME280;33408;52.062;11.722;2023-11-18T07:27:34;102118.03;;;0.87;100.00
47670;BME280;33408;52.062;11.722;2023-11-18T07:30:01;102126.03;;;0.95;100.00
47670;BME280;33408;52.062;11.722;2023-11-18T07:32:30;102126.09;;;0.96;100.00
47670;BME280;33408;52.062;11.722;2023-11-18T07:34:56;102122.81;;;0.99;100.00
47670;BME280;33408;52.062;11.722;2023-11-18T07:37:23;102138.91;;;0.98;100.00
47670;BME280;33408;52.062;11.722;2023-11-18T07:39:52;102133.88;;;0.99;100.00
47670;BME280;33408;52.062;11.722;2023-11-18T07:42:20;102132.13;;;0.98;100.00
47670;BME280;33408;52.062;11.722;2023-11-18T07:44:47;102132.25;;;1.01;100.00
47670;BME280;33408;52.062;11.722;2023-11-18T07:47:14;102136.50;;;1.01;100.00
47670;BME280;33408;52.062;11.722;2023-11-18T07:49:42;102140.19;;;1.07;100.00
47670;BME280;33408;52.062;11.722;2023-11-18T07:52:11;102144.72;;;1.13;100.00
47670;BME280;33408;52.062;11.722;2023-11-18T07:54:37;102145.03;;;1.01;100.00
47670;BME280;33408;52.062;11.722;2023-11-18T07:57:04;102148.97;;;1.14;100.00
47670;BME280;33408;52.062;11.722;2023-11-18T07:59:35;102153.50;;;1.00;100.00
47670;BME280;33408;52.062;11.722;2023-11-18T08:02:02;102158.91;;;1.06;100.00
47670;BME280;33408;52.062;11.722;2023-11-18T08:04:34;102154.91;;;1.13;100.00
47670;BME280;33408;52.062;11.722;2023-11-18T08:07:02;102151.75;;;1.19;100.00
47670;BME280;33408;52.062;11.722;2023-11-18T08:09:29;102156.19;;;1.23;100.00
47670;BME280;33408;52.062;11.722;2023-11-18T08:11:57;102154.03;;;1.32;100.00
47670;BME280;33408;52.062;11.722;2023-11-18T08:14:24;102147.44;;;1.37;100.00
47670;BME280;33408;52.062;11.722;2023-11-18T08:16:50;102151.50;;;1.53;100.00
47670;BME280;33408;52.062;11.722;2023-11-18T08:19:18;102145.09;;;1.63;100.00
47670;BME280;33408;52.062;11.722;2023-11-18T08:21:45;102143.59;;;1.68;100.00
47670;BME280;33408;52.062;11.722;2023-11-18T08:24:13;102141.41;;;1.77;100.00
47670;BME280;33408;52.062;11.722;2023-11-18T08:26:40;102150.38;;;1.89;100.00
47670;BME280;33408;52.062;11.722;2023-11-18T08:29:06;102150.84;;;2.01;100.00
47670;BME280;33408;52.062;11.722;2023-11-18T08:31:33;102153.66;;;2.07;100.00
47670;BME280;33408;52.062;11.722;2023-11-18T08:34:00;102160.47;;;2.07;100.00
47670;BME280;33408;52.062;11.722;2023-11-18T08:36:26;102151.28;;;2.12;100.00
47670;BME280;33408;52.062;11.722;2023-11-18T08:38:53;102157.97;;;2.08;100.00
47670;BME280;33408;52.062;11.722;2023-11-18T08:41:23;102158.94;;;2.12;100.00
47670;BME280;33408;52.062;11.722;2023-11-18T08:43:49;102163.31;;;2.14;100.00
47670;BME280;33408;52.062;11.722;2023-11-18T08:46:17;102165.88;;;2.14;100.00
47670;BME280;33408;52.062;11.722;2023-11-18T08:48:44;102167.72;;;2.18;100.00
47670;BME280;33408;52.062;11.722;2023-11-18T08:51:10;102164.44;;;2.21;100.00
47670;BME280;33408;52.062;11.722;2023-11-18T08:53:39;102168.72;;;2.22;100.00
47670;BME280;33408;52.062;11.722;2023-11-18T08:56:08;102160.31;;;2.25;100.00
47670;BME280;33408;52.062;11.722;2023-11-18T08:58:41;102170.84;;;2.32;100.00
47670;BME280;33408;52.062;11.722;2023-11-18T09:01:10;102167.56;;;2.36;100.00
47670;BME280;33408;52.062;11.722;2023-11-18T09:03:40;102159.28;;;2.42;100.00
47670;BME280;33408;52.062;11.722;2023-11-18T09:06:14;102163.72;;;2.48;100.00
47670;BME280;33408;52.062;11.722;2023-11-18T09:08:51;102162.34;;;2.56;100.00
47670;BME280;33408;52.062;11.722;2023-11-18T09:11:20;102157.38;;;2.61;100.00
47670;BME280;33408;52.062;11.722;2023-11-18T09:13:50;102149.81;;;2.64;100.00
47670;BME280;33408;52.062;11.722;2023-11-18T09:16:19;102149.38;;;2.74;100.00
47670;BME280;33408;52.062;11.722;2023-11-18T09:18:48;102152.22;;;2.83;100.00
47670;BME280;33408;52.062;11.722;2023-11-18T09:21:14;102145.16;;;3.00;100.00
47670;BME280;33408;52.062;11.722;2023-11-18T09:23:45;102152.41;;;3.12;100.00
47670;BME280;33408;52.062;11.722;2023-11-18T09:26:13;102144.34;;;3.25;100.00
47670;BME280;33408;52.062;11.722;2023-11-18T09:28:40;102146.72;;;3.45;100.00
47670;BME280;33408;52.062;11.722;2023-11-18T09:31:08;102146.28;;;3.58;100.00
47670;BME280;33408;52.062;11.722;2023-11-18T09:33:37;102145.75;;;3.69;100.00
47670;BME280;33408;52.062;11.722;2023-11-18T09:36:06;102138.16;;;3.72;100.00
47670;BME280;33408;52.062;11.722;2023-11-18T09:38:35;102139.28;;;3.80;100.00
47670;BME280;33408;52.062;11.722;2023-11-18T09:41:03;102143.69;;;3.84;100.00
47670;BME280;33408;52.062;11.722;2023-11-18T09:43:32;102130.97;;;3.87;100.00
47670;BME280;33408;52.062;11.722;2023-11-18T09:46:09;102141.44;;;3.93;100.00
47670;BME280;33408;52.062;11.722;2023-11-18T09:48:42;102135.56;;;3.97;100.00
47670;BME280;33408;52.062;11.722;2023-11-18T09:51:14;102133.03;;;3.99;100.00
47670;BME280;33408;52.062;11.722;2023-11-18T09:53:44;102134.25;;;4.10;100.00
47670;BME280;33408;52.062;11.722;2023-11-18T09:56:18;102131.91;;;4.18;100.00
47670;BME280;33408;52.062;11.722;2023-11-18T09:58:57;102126.22;;;4.27;100.00
47670;BME280;33408;52.062;11.722;2023-11-18T10:01:30;102129.88;;;4.35;100.00
47670;BME280;33408;52.062;11.722;2023-11-18T10:03:59;102118.03;;;4.40;100.00
47670;BME280;33408;52.062;11.722;2023-11-18T10:06:33;102117.31;;;4.46;100.00
47670;BME280;33408;52.062;11.722;2023-11-18T10:09:02;102115.75;;;4.49;100.00
47670;BME280;33408;52.062;11.722;2023-11-18T10:11:40;102110.81;;;4.57;100.00
47670;BME280;33408;52.062;11.722;2023-11-18T10:14:07;102111.69;;;4.57;100.00
47670;BME280;33408;52.062;11.722;2023-11-18T10:16:35;102103.28;;;4.63;100.00
47670;BME280;33408;52.062;11.722;2023-11-18T10:19:04;102119.03;;;4.75;100.00
47670;BME280;33408;52.062;11.722;2023-11-18T10:21:34;102119.09;;;4.77;100.00
47670;BME280;33408;52.062;11.722;2023-11-18T10:24:05;102112.06;;;4.71;100.00
47670;BME280;33408;52.062;11.722;2023-11-18T10:26:40;102114.91;;;4.81;100.00
47670;BME280;33408;52.062;11.722;2023-11-18T10:29:09;102118.38;;;4.83;100.00
47670;BME280;33408;52.062;11.722;2023-11-18T10:31:39;102109.28;;;4.96;100.00
47670;BME280;33408;52.062;11.722;2023-11-18T10:34:11;102102.53;;;4.98;100.00
47670;BME280;33408;52.062;11.722;2023-11-18T10:36:41;102102.91;;;5.13;100.00
47670;BME280;33408;52.062;11.722;2023-11-18T10:39:11;102103.03;;;5.18;100.00
47670;BME280;33408;52.062;11.722;2023-11-18T10:41:42;102102.25;;;5.20;100.00
47670;BME280;33408;52.062;11.722;2023-11-18T10:44:11;102094.63;;;5.23;100.00
47670;BME280;33408;52.062;11.722;2023-11-18T10:46:50;102094.66;;;5.25;100.00
47670;BME280;33408;52.062;11.722;2023-11-18T10:49:18;102093.06;;;5.30;100.00
47670;BME280;33408;52.062;11.722;2023-11-18T10:51:46;102091.59;;;5.40;100.00
47670;BME280;33408;52.062;11.722;2023-11-18T10:54:13;102086.56;;;5.44;100.00
47670;BME280;33408;52.062;11.722;2023-11-18T10:56:46;102082.25;;;5.43;100.00
47670;BME280;33408;52.062;11.722;2023-11-18T10:59:13;102082.22;;;5.42;100.00
47670;BME280;33408;52.062;11.722;2023-11-18T11:01:43;102081.59;;;5.51;100.00
47670;BME280;33408;52.062;11.722;2023-11-18T11:04:10;102077.25;;;5.50;100.00
47670;BME280;33408;52.062;11.722;2023-11-18T11:06:41;102081.59;;;5.52;100.00
47670;BME280;33408;52.062;11.722;2023-11-18T11:09:08;102079.94;;;5.54;100.00
47670;BME280;33408;52.062;11.722;2023-11-18T11:11:46;102079.34;;;5.66;100.00
47670;BME280;33408;52.062;11.722;2023-11-18T11:14:14;102071.38;;;5.55;100.00
47670;BME280;33408;52.062;11.722;2023-11-18T11:16:47;102074.84;;;5.56;100.00
47670;BME280;33408;52.062;11.722;2023-11-18T11:19:24;102067.25;;;5.60;100.00
47670;BME280;33408;52.062;11.722;2023-11-18T11:21:59;102068.16;;;5.64;100.00
47670;BME280;33408;52.062;11.722;2023-11-18T11:24:35;102063.06;;;5.65;100.00
47670;BME280;33408;52.062;11.722;2023-11-18T11:27:10;102055.31;;;5.64;100.00
47670;BME280;33408;52.062;11.722;2023-11-18T11:29:50;102050.34;;;5.72;100.00
47670;BME280;33408;52.062;11.722;2023-11-18T11:32:28;102048.75;;;5.77;100.00
47670;BME280;33408;52.062;11.722;2023-11-18T11:34:59;102047.03;;;5.77;100.00
47670;BME280;33408;52.062;11.722;2023-11-18T11:37:32;102041.03;;;5.77;100.00
47670;BME280;33408;52.062;11.722;2023-11-18T11:40:00;102031.59;;;5.77;100.00
47670;BME280;33408;52.062;11.722;2023-11-18T11:42:34;102025.50;;;5.74;100.00
47670;BME280;33408;52.062;11.722;2023-11-18T11:45:02;102028.88;;;5.71;100.00
47670;BME280;33408;52.062;11.722;2023-11-18T11:47:30;102019.38;;;5.67;100.00
47670;BME280;33408;52.062;11.722;2023-11-18T11:50:02;102020.38;;;5.74;100.00
47670;BME280;33408;52.062;11.722;2023-11-18T11:52:36;102018.69;;;5.76;100.00
47670;BME280;33408;52.062;11.722;2023-11-18T11:55:12;102016.25;;;5.82;100.00
47670;BME280;33408;52.062;11.722;2023-11-18T11:57:50;102005.31;;;5.92;100.00
47670;BME280;33408;52.062;11.722;2023-11-18T12:00:19;102000.47;;;6.05;100.00
47670;BME280;33408;52.062;11.722;2023-11-18T12:02:52;102004.84;;;6.09;100.00
47670;BME280;33408;52.062;11.722;2023-11-18T12:05:23;102000.56;;;6.09;100.00
47670;BME280;33408;52.062;11.722;2023-11-18T12:07:51;102001.63;;;6.19;100.00
47670;BME280;33408;52.062;11.722;2023-11-18T12:10:20;102007.63;;;6.19;100.00
47670;BME280;33408;52.062;11.722;2023-11-18T12:12:50;102006.00;;;6.25;100.00
47670;BME280;33408;52.062;11.722;2023-11-18T12:15:47;102005.81;;;6.14;100.00
47670;BME280;33408;52.062;11.722;2023-11-18T12:18:23;101996.09;;;6.02;100.00
47670;BME280;33408;52.062;11.722;2023-11-18T12:20:50;101999.22;;;5.89;100.00
47670;BME280;33408;52.062;11.722;2023-11-18T12:23:21;101982.97;;;5.90;100.00
47670;BME280;33408;52.062;11.722;2023-11-18T12:25:50;101995.84;;;5.90;100.00
47670;BME280;33408;52.062;11.722;2023-11-18T12:28:20;101987.91;;;5.80;100.00
47670;BME280;33408;52.062;11.722;2023-11-18T12:30:52;101968.25;;;5.84;100.00
47670;BME280;33408;52.062;11.722;2023-11-18T12:33:22;101964.66;;;5.76;100.00
47670;BME280;33408;52.062;11.722;2023-11-18T12:36:27;101961.28;;;5.78;100.00
47670;BME280;33408;52.062;11.722;2023-11-18T12:39:38;101948.53;;;5.83;100.00
47670;BME280;33408;52.062;11.722;2023-11-18T12:45:22;101927.88;;;5.80;100.00
47670;BME280;33408;52.062;11.722;2023-11-18T12:47:55;101933.81;;;5.77;100.00
47670;BME280;33408;52.062;11.722;2023-11-18T12:50:25;101935.56;;;5.78;100.00
47670;BME280;33408;52.062;11.722;2023-11-18T12:52:54;101935.66;;;5.83;100.00